Time;durP1;ratioP1;P1;durP2;ratioP2;P2;SDS_P1;SDS_P2;PMS_P1;PMS_P2;Temp;Humidity;BMP_temperature;BMP_pressure;BME280_temperature;BME280_humidity;BME280_pressure;Samples;Min_cycle;Max_cycle;Signal;HPM_P1;HPM_P2
2021/09/19 00:00:00;;;;;;;3.33;2.40;;;;;;;;;;4956148;28;20037;-75
2021/09/19 00:02:25;;;;;;;5.03;2.90;;;;;;;;;;4988906;28;20041;-77
2021/09/19 00:04:50;;;;;;;4.53;2.17;;;;;;;;;;4989714;28;20467;-74
2021/09/19 00:07:16;;;;;;;2.53;2.15;;;;;;;;;;4988599;28;20038;-76
2021/09/19 00:09:42;;;;;;;3.38;2.33;;;;;;;;;;4988645;28;20094;-75
2021/09/19 00:12:08;;;;;;;2.85;2.10;;;;;;;;;;4989795;28;20372;-76
2021/09/19 00:14:34;;;;;;;4.70;2.80;;;;;;;;;;4989069;28;20491;-75
2021/09/19 00:17:01;;;;;;;3.50;2.33;;;;;;;;;;4990781;28;20022;-77
2021/09/19 00:19:27;;;;;;;4.32;2.83;;;;;;;;;;4990735;28;20065;-74
2021/09/19 00:21:52;;;;;;;4.80;2.33;;;;;;;;;;4988463;28;20113;-75
2021/09/19 00:24:18;;;;;;;3.00;2.40;;;;;;;;;;4989880;28;20434;-74
2021/09/19 00:26:45;;;;;;;4.55;3.40;;;;;;;;;;4989866;28;20034;-75
2021/09/19 00:29:10;;;;;;;4.57;2.80;;;;;;;;;;4989635;28;20030;-74
2021/09/19 00:31:36;;;;;;;3.85;3.13;;;;;;;;;;4972085;28;20446;-75
2021/09/19 00:34:01;;;;;;;3.55;3.10;;;;;;;;;;4989738;28;20034;-76
2021/09/19 00:36:27;;;;;;;5.43;3.83;;;;;;;;;;4972479;28;20033;-76
2021/09/19 00:38:52;;;;;;;8.23;3.65;;;;;;;;;;4978798;28;20508;-73
2021/09/19 00:41:18;;;;;;;5.88;3.45;;;;;;;;;;4979969;28;20029;-76
2021/09/19 00:43:44;;;;;;;5.68;3.50;;;;;;;;;;4997000;28;20474;-76
2021/09/19 00:46:09;;;;;;;6.15;3.75;;;;;;;;;;4993251;28;20502;-74
2021/09/19 00:48:35;;;;;;;8.27;4.32;;;;;;;;;;4976106;28;20030;-76
2021/09/19 00:51:01;;;;;;;4.82;3.75;;;;;;;;;;4992765;28;20062;-76
2021/09/19 00:53:27;;;;;;;4.88;4.05;;;;;;;;;;4992908;28;20522;-75
2021/09/19 00:55:56;;;;;;;10.30;4.50;;;;;;;;;;4992921;28;20053;-73
2021/09/19 00:58:22;;;;;;;8.02;4.97;;;;;;;;;;4993161;28;20042;-77
2021/09/19 01:00:49;;;;;;;7.90;4.43;;;;;;;;;;4992951;28;20034;-76
2021/09/19 01:03:18;;;;;;;7.95;4.63;;;;;;;;;;4993119;28;20026;-75
2021/09/19 01:05:44;;;;;;;10.48;5.10;;;;;;;;;;4975096;28;20041;-75
2021/09/19 01:08:14;;;;;;;6.25;4.63;;;;;;;;;;4992633;28;20065;-75
2021/09/19 01:10:39;;;;;;;10.07;5.32;;;;;;;;;;4975283;28;20022;-76
2021/09/19 01:13:07;;;;;;;8.75;5.40;;;;;;;;;;4992536;28;20037;-75
2021/09/19 01:15:33;;;;;;;7.78;5.30;;;;;;;;;;4992834;28;20026;-75
2021/09/19 01:18:00;;;;;;;9.18;5.00;;;;;;;;;;4992212;28;20053;-75
2021/09/19 01:20:26;;;;;;;9.80;6.32;;;;;;;;;;4991173;28;20034;-75
2021/09/19 01:23:03;;;;;;;7.00;5.30;;;;;;;;;;4992408;28;20033;-75
2021/09/19 01:25:28;;;;;;;8.50;5.10;;;;;;;;;;4992629;28;20041;-75
2021/09/19 01:27:54;;;;;;;8.10;5.25;;;;;;;;;;4992550;28;20034;-75
2021/09/19 01:30:20;;;;;;;10.07;5.57;;;;;;;;;;4990447;28;20105;-76
2021/09/19 01:32:45;;;;;;;8.48;5.78;;;;;;;;;;4992473;28;20038;-75
2021/09/19 01:35:11;;;;;;;8.30;6.03;;;;;;;;;;4990640;28;20058;-76
2021/09/19 01:37:38;;;;;;;8.20;5.65;;;;;;;;;;4974690;28;20038;-76
2021/09/19 01:40:05;;;;;;;10.13;6.13;;;;;;;;;;4974528;28;20026;-72
2021/09/19 01:42:30;;;;;;;10.45;6.45;;;;;;;;;;4992617;28;20065;-72
2021/09/19 01:44:56;;;;;;;8.27;5.95;;;;;;;;;;4992366;28;20073;-73
2021/09/19 01:47:22;;;;;;;9.52;6.18;;;;;;;;;;4974891;28;20033;-72
2021/09/19 01:49:49;;;;;;;9.27;6.45;;;;;;;;;;4991826;28;20534;-72
2021/09/19 01:52:19;;;;;;;10.05;6.50;;;;;;;;;;4992222;28;20049;-71
2021/09/19 01:54:45;;;;;;;10.75;6.25;;;;;;;;;;4992468;28;20089;-72
2021/09/19 01:57:15;;;;;;;10.73;6.75;;;;;;;;;;4992130;28;20391;-72
2021/09/19 01:59:41;;;;;;;11.57;6.40;;;;;;;;;;4992084;28;20041;-72
2021/09/19 02:02:06;;;;;;;8.40;6.20;;;;;;;;;;4992118;28;20382;-71
2021/09/19 02:04:32;;;;;;;12.35;7.18;;;;;;;;;;4974841;28;20038;-71
2021/09/19 02:06:57;;;;;;;12.10;7.18;;;;;;;;;;4991664;28;20026;-73
2021/09/19 02:09:23;;;;;;;8.70;6.63;;;;;;;;;;4991799;28;20088;-74
2021/09/19 02:11:48;;;;;;;11.65;7.53;;;;;;;;;;4990352;28;20058;-74
2021/09/19 02:14:15;;;;;;;8.48;6.45;;;;;;;;;;4973964;28;20030;-74
2021/09/19 02:16:41;;;;;;;10.63;6.32;;;;;;;;;;4990313;28;20073;-74
2021/09/19 02:19:06;;;;;;;9.15;6.53;;;;;;;;;;4989994;28;20062;-73
2021/09/19 02:21:32;;;;;;;8.50;6.45;;;;;;;;;;4991364;28;20027;-73
2021/09/19 02:23:57;;;;;;;9.18;6.13;;;;;;;;;;4990180;28;20493;-74
2021/09/19 02:26:22;;;;;;;15.73;6.72;;;;;;;;;;4991295;28;20485;-73
2021/09/19 02:28:48;;;;;;;10.43;6.32;;;;;;;;;;4973975;28;20053;-73
2021/09/19 02:31:13;;;;;;;10.32;6.20;;;;;;;;;;4991105;28;20534;-73
2021/09/19 02:33:39;;;;;;;9.07;5.85;;;;;;;;;;4991230;28;20034;-74
2021/09/19 02:36:04;;;;;;;7.68;5.95;;;;;;;;;;4991137;28;20030;-73
2021/09/19 02:38:30;;;;;;;10.48;6.95;;;;;;;;;;4991483;28;20471;-73
2021/09/19 02:40:56;;;;;;;9.85;7.15;;;;;;;;;;4991206;28;20037;-72
2021/09/19 02:43:23;;;;;;;11.63;6.05;;;;;;;;;;4991407;28;20364;-73
2021/09/19 02:45:50;;;;;;;9.98;4.95;;;;;;;;;;4974050;28;20042;-73
2021/09/19 02:48:15;;;;;;;6.72;5.13;;;;;;;;;;4990943;28;20437;-74
2021/09/19 02:50:41;;;;;;;15.65;6.78;;;;;;;;;;4991118;28;20034;-73
2021/09/19 02:53:07;;;;;;;8.75;5.72;;;;;;;;;;4990594;28;20037;-73
2021/09/19 02:55:33;;;;;;;7.75;5.15;;;;;;;;;;4990826;28;20390;-74
2021/09/19 02:57:58;;;;;;;9.10;5.15;;;;;;;;;;4973245;28;20042;-73
2021/09/19 03:00:24;;;;;;;8.75;5.65;;;;;;;;;;4991063;28;20038;-73
2021/09/19 03:02:50;;;;;;;11.48;6.82;;;;;;;;;;4989081;28;20440;-72
2021/09/19 03:05:16;;;;;;;8.63;5.43;;;;;;;;;;4989826;28;20470;-72
2021/09/19 03:07:43;;;;;;;11.43;5.93;;;;;;;;;;4973690;28;20058;-72
2021/09/19 03:10:10;;;;;;;9.25;5.70;;;;;;;;;;4973435;28;20490;-73
2021/09/19 03:12:36;;;;;;;8.77;6.53;;;;;;;;;;4991104;28;20034;-74
2021/09/19 03:15:03;;;;;;;9.00;5.90;;;;;;;;;;4973287;28;20049;-74
2021/09/19 03:17:28;;;;;;;8.15;5.50;;;;;;;;;;4973095;28;20038;-74
2021/09/19 03:19:54;;;;;;;7.18;5.60;;;;;;;;;;4973267;28;20022;-73
2021/09/19 03:22:19;;;;;;;7.20;5.32;;;;;;;;;;4990850;28;20026;-73
2021/09/19 03:24:45;;;;;;;8.02;5.18;;;;;;;;;;4990927;28;20058;-73
2021/09/19 03:27:10;;;;;;;7.55;5.45;;;;;;;;;;4990778;28;20026;-73
2021/09/19 03:29:36;;;;;;;7.90;4.85;;;;;;;;;;4973259;28;20467;-75
2021/09/19 03:32:02;;;;;;;9.30;4.75;;;;;;;;;;4990387;28;20097;-73
2021/09/19 03:34:27;;;;;;;7.68;5.05;;;;;;;;;;4990633;28;20038;-73
2021/09/19 03:36:53;;;;;;;5.35;3.80;;;;;;;;;;4989352;28;20096;-73
2021/09/19 03:39:18;;;;;;;6.72;4.07;;;;;;;;;;4990156;28;20122;-73
2021/09/19 03:41:44;;;;;;;7.22;4.65;;;;;;;;;;4972965;28;20030;-73
2021/09/19 03:44:10;;;;;;;6.50;3.40;;;;;;;;;;4988968;28;20401;-73
2021/09/19 03:46:38;;;;;;;3.95;3.47;;;;;;;;;;4990552;28;20026;-73
2021/09/19 03:49:04;;;;;;;4.53;3.40;;;;;;;;;;4988962;28;20030;-73
2021/09/19 03:51:29;;;;;;;7.55;3.95;;;;;;;;;;4973039;28;20034;-73
2021/09/19 03:53:55;;;;;;;6.80;3.60;;;;;;;;;;4973057;28;20026;-73
2021/09/19 03:56:20;;;;;;;5.75;3.50;;;;;;;;;;4990368;28;20061;-72
2021/09/19 03:58:46;;;;;;;5.43;3.22;;;;;;;;;;4989695;28;20096;-73
2021/09/19 04:01:11;;;;;;;5.45;3.60;;;;;;;;;;4988944;28;20367;-74
2021/09/19 04:03:37;;;;;;;4.00;3.38;;;;;;;;;;4973120;28;20069;-73
2021/09/19 04:06:03;;;;;;;4.25;3.35;;;;;;;;;;4990317;28;20038;-73
2021/09/19 04:08:28;;;;;;;4.88;2.70;;;;;;;;;;4990114;28;20037;-73
2021/09/19 04:10:54;;;;;;;5.20;3.63;;;;;;;;;;4990751;28;20352;-73
2021/09/19 04:13:19;;;;;;;6.38;3.40;;;;;;;;;;4991904;28;20026;-73
2021/09/19 04:15:45;;;;;;;5.85;3.95;;;;;;;;;;4993835;28;20490;-74
2021/09/19 04:18:10;;;;;;;5.20;3.78;;;;;;;;;;4976126;28;20034;-71
2021/09/19 04:20:36;;;;;;;5.25;3.70;;;;;;;;;;4993862;28;20038;-72
2021/09/19 04:23:02;;;;;;;7.93;4.30;;;;;;;;;;4994548;28;20034;-72
2021/09/19 04:25:28;;;;;;;5.68;3.30;;;;;;;;;;4977000;28;20061;-72
2021/09/19 04:27:53;;;;;;;5.72;3.60;;;;;;;;;;4976841;28;20064;-70
2021/09/19 04:30:19;;;;;;;6.53;3.75;;;;;;;;;;4992301;28;20055;-72
2021/09/19 04:32:45;;;;;;;7.28;3.30;;;;;;;;;;4976444;28;20055;-73
2021/09/19 04:35:11;;;;;;;4.93;2.90;;;;;;;;;;4992518;28;20060;-72
2021/09/19 04:37:36;;;;;;;5.32;3.20;;;;;;;;;;4993774;28;20488;-71
2021/09/19 04:40:03;;;;;;;4.70;2.97;;;;;;;;;;4976185;28;20038;-71
2021/09/19 04:42:29;;;;;;;3.58;2.60;;;;;;;;;;4975765;28;20203;-73
2021/09/19 04:44:54;;;;;;;5.32;3.25;;;;;;;;;;4992290;28;20121;-73
2021/09/19 04:47:20;;;;;;;5.35;2.60;;;;;;;;;;4975583;28;20422;-72
2021/09/19 04:49:45;;;;;;;4.95;3.17;;;;;;;;;;4993379;28;20093;-73
2021/09/19 04:52:11;;;;;;;4.82;3.25;;;;;;;;;;4975260;28;20482;-72
2021/09/19 04:54:36;;;;;;;6.13;4.40;;;;;;;;;;4993043;28;20036;-76
2021/09/19 04:57:02;;;;;;;5.72;3.70;;;;;;;;;;4992676;28;20437;-74
2021/09/19 04:59:28;;;;;;;8.35;3.88;;;;;;;;;;4975245;28;20061;-75
2021/09/19 05:01:53;;;;;;;5.32;4.15;;;;;;;;;;4975277;28;20030;-75
2021/09/19 05:04:19;;;;;;;7.65;3.90;;;;;;;;;;4975434;28;20466;-76
2021/09/19 05:06:46;;;;;;;9.88;4.05;;;;;;;;;;4976741;28;20037;-76
2021/09/19 05:09:11;;;;;;;8.32;4.68;;;;;;;;;;4996455;28;20053;-77
2021/09/19 05:11:37;;;;;;;7.55;3.78;;;;;;;;;;4978681;28;20066;-76
2021/09/19 05:14:03;;;;;;;5.78;4.13;;;;;;;;;;4993808;28;20467;-75
2021/09/19 05:16:28;;;;;;;9.80;4.22;;;;;;;;;;4993540;28;20034;-76
2021/09/19 05:18:57;;;;;;;7.45;4.03;;;;;;;;;;4992951;28;20030;-76
2021/09/19 05:21:24;;;;;;;6.50;4.25;;;;;;;;;;4991132;28;20034;-75
2021/09/19 05:23:49;;;;;;;7.72;5.07;;;;;;;;;;4992581;28;20267;-75
2021/09/19 05:26:15;;;;;;;8.30;5.18;;;;;;;;;;4991789;28;20030;-77
2021/09/19 05:28:40;;;;;;;5.93;4.43;;;;;;;;;;4992561;28;20038;-76
2021/09/19 05:31:06;;;;;;;5.63;4.68;;;;;;;;;;4992253;28;20109;-73
2021/09/19 05:33:31;;;;;;;5.90;3.97;;;;;;;;;;4992424;28;20129;-73
2021/09/19 05:35:57;;;;;;;8.13;4.43;;;;;;;;;;4992520;28;20060;-73
2021/09/19 05:38:22;;;;;;;7.38;4.03;;;;;;;;;;4974593;28;20117;-73
2021/09/19 05:40:48;;;;;;;6.20;4.25;;;;;;;;;;4992245;28;20475;-74
2021/09/19 05:43:13;;;;;;;6.50;4.45;;;;;;;;;;4991777;28;20022;-74
2021/09/19 05:45:39;;;;;;;7.88;4.05;;;;;;;;;;4990491;28;20030;-74
2021/09/19 05:48:05;;;;;;;8.68;5.07;;;;;;;;;;4991902;28;20110;-74
2021/09/19 05:50:30;;;;;;;6.40;4.40;;;;;;;;;;4991892;28;20088;-74
2021/09/19 05:52:56;;;;;;;9.00;4.93;;;;;;;;;;4992286;28;20037;-74
2021/09/19 05:55:23;;;;;;;7.35;4.88;;;;;;;;;;4974750;28;20037;-73
2021/09/19 05:57:48;;;;;;;7.55;5.00;;;;;;;;;;4992025;28;20030;-73
2021/09/19 06:00:14;;;;;;;9.60;4.85;;;;;;;;;;4991589;28;20035;-72
2021/09/19 06:02:40;;;;;;;6.45;4.20;;;;;;;;;;4992047;28;20034;-74
2021/09/19 06:05:08;;;;;;;5.60;3.95;;;;;;;;;;4974564;28;20507;-74
2021/09/19 06:07:33;;;;;;;8.05;5.25;;;;;;;;;;4974256;28;20026;-71
2021/09/19 06:09:59;;;;;;;7.88;4.55;;;;;;;;;;4974454;28;20382;-72
2021/09/19 06:12:25;;;;;;;7.82;4.97;;;;;;;;;;4974104;28;20470;-73
2021/09/19 06:14:52;;;;;;;7.35;5.00;;;;;;;;;;4991802;28;20411;-73
2021/09/19 06:17:20;;;;;;;10.43;5.28;;;;;;;;;;4990834;28;20026;-74
2021/09/19 06:19:47;;;;;;;9.13;4.63;;;;;;;;;;4990612;28;20370;-72
2021/09/19 06:22:14;;;;;;;6.10;4.68;;;;;;;;;;4991847;28;20408;-71
2021/09/19 06:24:39;;;;;;;8.15;4.70;;;;;;;;;;4991755;28;20057;-74
2021/09/19 06:27:05;;;;;;;6.43;4.35;;;;;;;;;;4991976;28;20034;-74
2021/09/19 06:29:31;;;;;;;11.73;5.40;;;;;;;;;;4991661;28;20041;-73
2021/09/19 06:31:57;;;;;;;5.18;4.15;;;;;;;;;;4991209;28;20458;-72
2021/09/19 06:34:23;;;;;;;6.72;3.55;;;;;;;;;;4991552;28;20037;-73
2021/09/19 06:36:49;;;;;;;4.93;3.53;;;;;;;;;;4991271;28;20034;-74
2021/09/19 06:39:14;;;;;;;6.25;3.60;;;;;;;;;;4991715;28;20104;-73
2021/09/19 06:41:40;;;;;;;4.15;3.17;;;;;;;;;;4973943;28;20415;-73
2021/09/19 06:44:05;;;;;;;7.80;3.72;;;;;;;;;;4992268;28;20026;-76
2021/09/19 06:46:31;;;;;;;5.47;2.60;;;;;;;;;;4990176;28;20030;-73
2021/09/19 06:48:58;;;;;;;7.88;3.05;;;;;;;;;;4991878;28;20093;-73
2021/09/19 06:51:24;;;;;;;6.00;3.20;;;;;;;;;;4973539;28;20105;-72
2021/09/19 06:53:50;;;;;;;4.32;2.97;;;;;;;;;;4991428;28;20113;-72
2021/09/19 06:56:16;;;;;;;5.25;2.88;;;;;;;;;;4973214;28;20034;-73
2021/09/19 06:58:41;;;;;;;4.45;3.17;;;;;;;;;;4991183;28;20364;-73
2021/09/19 07:01:10;;;;;;;10.15;3.95;;;;;;;;;;4991005;28;20500;-73
2021/09/19 07:03:35;;;;;;;5.43;2.88;;;;;;;;;;4973491;28;20353;-73
2021/09/19 07:06:01;;;;;;;7.43;3.75;;;;;;;;;;4991461;28;20530;-73
2021/09/19 07:08:27;;;;;;;7.28;3.60;;;;;;;;;;4973531;28;20267;-73
2021/09/19 07:10:54;;;;;;;6.20;3.25;;;;;;;;;;4990937;28;20364;-73
2021/09/19 07:13:21;;;;;;;6.30;3.58;;;;;;;;;;4973000;28;20113;-72
2021/09/19 07:15:52;;;;;;;6.68;3.25;;;;;;;;;;4990963;28;20483;-73
2021/09/19 07:18:23;;;;;;;9.98;4.40;;;;;;;;;;4973124;28;20038;-73
2021/09/19 07:20:49;;;;;;;8.07;4.05;;;;;;;;;;4973319;28;20027;-71
2021/09/19 07:23:15;;;;;;;5.43;3.05;;;;;;;;;;4990776;28;20479;-74
2021/09/19 07:25:41;;;;;;;5.63;3.33;;;;;;;;;;4990626;28;20037;-73
2021/09/19 07:28:08;;;;;;;3.75;2.83;;;;;;;;;;4990730;28;20038;-71
2021/09/19 07:30:34;;;;;;;5.18;3.17;;;;;;;;;;4972444;28;20046;-73
2021/09/19 07:33:00;;;;;;;7.25;4.03;;;;;;;;;;4989427;28;20079;-73
2021/09/19 07:35:27;;;;;;;6.55;3.78;;;;;;;;;;4973210;28;20030;-72
2021/09/19 07:37:53;;;;;;;5.10;3.17;;;;;;;;;;4989009;28;20073;-74
2021/09/19 07:40:19;;;;;;;8.13;4.43;;;;;;;;;;4972996;28;20399;-73
2021/09/19 07:42:45;;;;;;;6.55;4.10;;;;;;;;;;4990556;28;20030;-75
2021/09/19 07:45:12;;;;;;;6.13;3.42;;;;;;;;;;4973099;28;20022;-73
2021/09/19 07:47:38;;;;;;;7.43;4.25;;;;;;;;;;4974564;28;20392;-73
2021/09/19 07:50:04;;;;;;;6.68;3.67;;;;;;;;;;4997307;28;20486;-74
2021/09/19 07:52:30;;;;;;;7.38;4.25;;;;;;;;;;4996690;28;20030;-73
2021/09/19 07:54:55;;;;;;;9.55;3.92;;;;;;;;;;4979365;28;20430;-73
2021/09/19 07:57:25;;;;;;;8.27;4.95;;;;;;;;;;4996776;28;20379;-73
2021/09/19 07:59:52;;;;;;;7.40;4.38;;;;;;;;;;4996597;28;20022;-73
2021/09/19 08:02:18;;;;;;;6.85;4.63;;;;;;;;;;4996747;28;20061;-74
2021/09/19 08:04:44;;;;;;;9.48;5.60;;;;;;;;;;4979476;28;20434;-73
2021/09/19 08:07:10;;;;;;;7.20;4.88;;;;;;;;;;4996684;28;20096;-73
2021/09/19 08:09:36;;;;;;;8.10;4.65;;;;;;;;;;4979029;28;20235;-73
2021/09/19 08:12:02;;;;;;;6.68;4.45;;;;;;;;;;4979206;28;20022;-73
2021/09/19 08:14:28;;;;;;;7.38;5.25;;;;;;;;;;4996444;28;20101;-73
2021/09/19 08:16:54;;;;;;;9.13;5.50;;;;;;;;;;4979155;28;20034;-73
2021/09/19 08:19:21;;;;;;;8.48;5.07;;;;;;;;;;4995081;28;20038;-73
2021/09/19 08:21:47;;;;;;;12.02;6.05;;;;;;;;;;4996562;28;20030;-74
2021/09/19 08:24:13;;;;;;;10.98;5.85;;;;;;;;;;4979024;28;20120;-73
2021/09/19 08:26:40;;;;;;;9.77;5.13;;;;;;;;;;4996286;28;20105;-74
2021/09/19 08:29:06;;;;;;;10.80;6.13;;;;;;;;;;4996737;28;20018;-73
2021/09/19 08:31:32;;;;;;;14.68;6.43;;;;;;;;;;4978412;28;20046;-72
2021/09/19 08:33:58;;;;;;;14.90;6.22;;;;;;;;;;4978887;28;20133;-74
2021/09/19 08:36:24;;;;;;;9.85;6.45;;;;;;;;;;4996599;28;20022;-73
2021/09/19 08:38:51;;;;;;;10.18;5.03;;;;;;;;;;4995436;28;20075;-72
2021/09/19 08:41:18;;;;;;;9.50;5.95;;;;;;;;;;4995581;28;20031;-73
2021/09/19 08:43:48;;;;;;;11.40;5.70;;;;;;;;;;4996237;28;20546;-73
2021/09/19 08:46:15;;;;;;;12.63;6.15;;;;;;;;;;4996222;28;20101;-73
2021/09/19 08:48:41;;;;;;;10.85;5.85;;;;;;;;;;4978752;28;20026;-73
2021/09/19 08:51:07;;;;;;;11.50;6.63;;;;;;;;;;4995297;28;20022;-74
2021/09/19 08:53:32;;;;;;;11.40;5.43;;;;;;;;;;4996421;28;20026;-73
2021/09/19 08:55:59;;;;;;;12.35;5.28;;;;;;;;;;4998190;28;20032;-73
2021/09/19 08:58:25;;;;;;;12.35;5.63;;;;;;;;;;4996563;28;20030;-74
2021/09/19 09:00:51;;;;;;;16.75;5.45;;;;;;;;;;4959546;28;20482;-74
2021/09/19 09:03:20;;;;;;;10.73;4.93;;;;;;;;;;4975453;28;20057;-74
2021/09/19 09:05:57;;;;;;;11.75;5.70;;;;;;;;;;4975443;28;20037;-73
2021/09/19 09:08:23;;;;;;;7.95;4.78;;;;;;;;;;4992897;28;20030;-74
2021/09/19 09:10:51;;;;;;;10.23;5.40;;;;;;;;;;4993049;28;20026;-74
2021/09/19 09:13:22;;;;;;;10.07;5.25;;;;;;;;;;4993106;28;20033;-73
2021/09/19 09:15:50;;;;;;;11.55;4.93;;;;;;;;;;4975353;28;20077;-74
2021/09/19 09:18:36;;;;;;;7.13;5.00;;;;;;;;;;4975175;28;20042;-73
2021/09/19 09:21:10;;;;;;;11.18;5.93;;;;;;;;;;4975239;28;20112;-74
2021/09/19 09:23:47;;;;;;;12.93;4.90;;;;;;;;;;4975395;28;20039;-75
2021/09/19 09:26:33;;;;;;;12.85;6.18;;;;;;;;;;4992640;28;20390;-74
2021/09/19 09:29:06;;;;;;;7.30;4.75;;;;;;;;;;4992636;28;20031;-72
2021/09/19 09:31:36;;;;;;;12.77;5.47;;;;;;;;;;4992155;28;20050;-74
2021/09/19 09:34:26;;;;;;;10.80;5.22;;;;;;;;;;4991300;28;20320;-73
2021/09/19 09:36:57;;;;;;;6.78;4.50;;;;;;;;;;4975138;28;20113;-74
2021/09/19 09:39:34;;;;;;;9.50;5.00;;;;;;;;;;4992693;28;20023;-74
2021/09/19 09:42:14;;;;;;;9.63;5.28;;;;;;;;;;4975073;28;20064;-74
2021/09/19 09:44:45;;;;;;;9.73;4.90;;;;;;;;;;4993663;28;20038;-73
2021/09/19 09:47:19;;;;;;;7.53;4.63;;;;;;;;;;4993769;28;20030;-73
2021/09/19 09:49:57;;;;;;;9.93;5.25;;;;;;;;;;4976675;28;20026;-73
2021/09/19 09:52:27;;;;;;;9.68;6.25;;;;;;;;;;4993261;28;20019;-73
2021/09/19 09:54:52;;;;;;;10.90;5.93;;;;;;;;;;4974815;28;20026;-75
2021/09/19 09:57:51;;;;;;;10.48;5.28;;;;;;;;;;4974844;28;20033;-73
2021/09/19 10:00:19;;;;;;;11.27;6.05;;;;;;;;;;4974525;28;20368;-75
2021/09/19 10:02:48;;;;;;;9.95;6.32;;;;;;;;;;4992026;28;20030;-74
2021/09/19 10:05:15;;;;;;;9.27;5.25;;;;;;;;;;4974837;28;20031;-73
2021/09/19 10:07:43;;;;;;;13.45;6.20;;;;;;;;;;4991898;28;20113;-74
2021/09/19 10:10:11;;;;;;;9.63;5.65;;;;;;;;;;4991870;28;20022;-75
2021/09/19 10:12:38;;;;;;;13.98;6.30;;;;;;;;;;4974267;28;20018;-74
2021/09/19 10:15:05;;;;;;;10.10;6.38;;;;;;;;;;4992077;28;20050;-74
2021/09/19 10:17:31;;;;;;;9.68;5.93;;;;;;;;;;4974581;28;20459;-72
2021/09/19 10:19:59;;;;;;;9.48;5.22;;;;;;;;;;4974799;28;20113;-76
2021/09/19 10:22:31;;;;;;;14.50;6.32;;;;;;;;;;4974520;28;20459;-75
2021/09/19 10:24:57;;;;;;;11.68;6.25;;;;;;;;;;4991977;28;20479;-74
2021/09/19 10:27:29;;;;;;;9.48;5.80;;;;;;;;;;4992376;28;20081;-74
2021/09/19 10:30:13;;;;;;;11.38;6.50;;;;;;;;;;4973925;28;20433;-74
2021/09/19 10:32:41;;;;;;;9.43;5.47;;;;;;;;;;4991648;28;20064;-74
2021/09/19 10:35:15;;;;;;;10.45;6.28;;;;;;;;;;4974042;28;20068;-74
2021/09/19 10:37:54;;;;;;;11.30;6.97;;;;;;;;;;4991432;28;20030;-75
2021/09/19 10:40:37;;;;;;;14.73;8.90;;;;;;;;;;4993145;28;20049;-74
2021/09/19 10:43:23;;;;;;;9.68;5.55;;;;;;;;;;4973728;28;20022;-74
2021/09/19 10:45:52;;;;;;;11.30;7.07;;;;;;;;;;4990523;28;20034;-74
2021/09/19 10:48:29;;;;;;;8.60;5.32;;;;;;;;;;4989884;28;20041;-74
2021/09/19 10:51:20;;;;;;;9.63;5.85;;;;;;;;;;4991067;28;20529;-74
2021/09/19 10:53:47;;;;;;;12.75;6.18;;;;;;;;;;4969534;28;20105;-74
2021/09/19 10:56:13;;;;;;;9.63;6.00;;;;;;;;;;4989410;28;20026;-74
2021/09/19 10:58:41;;;;;;;10.52;6.05;;;;;;;;;;4972859;28;20125;-73
2021/09/19 11:01:17;;;;;;;11.77;7.53;;;;;;;;;;4989796;28;20037;-73
2021/09/19 11:03:45;;;;;;;15.38;6.60;;;;;;;;;;4990763;28;20106;-73
2021/09/19 11:06:29;;;;;;;10.65;6.07;;;;;;;;;;4991197;28;20022;-73
2021/09/19 11:08:56;;;;;;;10.27;6.43;;;;;;;;;;4990784;28;20037;-73
2021/09/19 11:11:24;;;;;;;10.73;5.90;;;;;;;;;;4990843;28;20114;-73
2021/09/19 11:13:59;;;;;;;10.93;6.47;;;;;;;;;;4972936;28;20474;-73
2021/09/19 11:16:34;;;;;;;12.77;6.20;;;;;;;;;;4990624;28;20030;-74
2021/09/19 11:19:03;;;;;;;35.00;7.95;;;;;;;;;;4989341;28;20032;-73
2021/09/19 11:21:31;;;;;;;11.85;6.97;;;;;;;;;;4989166;28;20022;-74
2021/09/19 11:24:01;;;;;;;15.80;7.38;;;;;;;;;;4989917;28;20109;-74
2021/09/19 11:26:39;;;;;;;15.80;8.18;;;;;;;;;;4973212;28;20022;-73
2021/09/19 11:29:37;;;;;;;17.90;10.82;;;;;;;;;;4991055;28;20033;-74
2021/09/19 11:32:04;;;;;;;15.50;8.82;;;;;;;;;;4951579;28;20518;-73
2021/09/19 11:34:30;;;;;;;16.75;8.18;;;;;;;;;;4990623;28;20030;-73
2021/09/19 11:36:58;;;;;;;14.70;7.88;;;;;;;;;;4990375;28;20030;-73
2021/09/19 11:39:30;;;;;;;13.73;8.43;;;;;;;;;;4990757;28;20037;-74
2021/09/19 11:41:56;;;;;;;13.10;8.00;;;;;;;;;;4990378;28;20030;-73
2021/09/19 11:44:22;;;;;;;18.75;7.90;;;;;;;;;;4972994;28;20029;-73
2021/09/19 11:46:50;;;;;;;14.45;8.18;;;;;;;;;;4989044;28;20026;-74
2021/09/19 11:49:19;;;;;;;11.98;7.18;;;;;;;;;;4988747;28;20081;-73
2021/09/19 11:51:45;;;;;;;13.25;7.38;;;;;;;;;;4990301;28;20023;-74
2021/09/19 11:54:13;;;;;;;12.57;7.93;;;;;;;;;;4990141;28;20026;-74
2021/09/19 11:56:42;;;;;;;21.08;8.75;;;;;;;;;;4989883;28;20420;-74
2021/09/19 11:59:14;;;;;;;15.32;9.32;;;;;;;;;;4972461;28;20399;-73
2021/09/19 12:01:41;;;;;;;17.38;8.82;;;;;;;;;;4989857;28;20089;-74
2021/09/19 12:04:09;;;;;;;17.70;9.50;;;;;;;;;;4989869;28;20082;-73
2021/09/19 12:06:35;;;;;;;12.02;8.30;;;;;;;;;;4989696;28;20026;-73
2021/09/19 12:09:08;;;;;;;16.35;8.13;;;;;;;;;;4972488;28;20096;-74
2021/09/19 12:11:54;;;;;;;14.98;9.25;;;;;;;;;;4989887;28;20022;-74
2021/09/19 12:14:24;;;;;;;13.63;8.50;;;;;;;;;;4990223;28;20033;-73
2021/09/19 12:17:08;;;;;;;17.00;9.20;;;;;;;;;;4972221;28;20037;-73
2021/09/19 12:19:36;;;;;;;14.82;8.73;;;;;;;;;;4990000;28;20109;-73
2021/09/19 12:22:08;;;;;;;14.38;9.25;;;;;;;;;;4989824;28;20058;-72
2021/09/19 12:24:36;;;;;;;15.80;9.38;;;;;;;;;;4988248;28;20394;-73
2021/09/19 12:27:17;;;;;;;12.40;8.70;;;;;;;;;;4972677;28;20105;-73
2021/09/19 12:30:07;;;;;;;21.15;9.02;;;;;;;;;;4989504;28;20542;-74
2021/09/19 12:32:38;;;;;;;15.82;8.98;;;;;;;;;;4971823;28;20072;-73
2021/09/19 12:35:15;;;;;;;23.15;9.43;;;;;;;;;;4992473;28;20032;-73
2021/09/19 12:37:45;;;;;;;13.30;8.32;;;;;;;;;;4993579;28;20431;-74
2021/09/19 12:40:16;;;;;;;13.43;8.68;;;;;;;;;;4975837;28;20050;-74
2021/09/19 12:42:42;;;;;;;14.70;8.23;;;;;;;;;;4994232;28;20105;-73
2021/09/19 12:45:09;;;;;;;14.63;8.63;;;;;;;;;;4993311;28;20438;-74
2021/09/19 12:47:37;;;;;;;15.35;8.43;;;;;;;;;;4993113;28;20026;-74
2021/09/19 12:50:07;;;;;;;15.25;9.02;;;;;;;;;;4993437;28;20027;-74
2021/09/19 12:52:33;;;;;;;18.92;11.85;;;;;;;;;;4975651;28;20088;-72
2021/09/19 12:54:59;;;;;;;14.70;9.65;;;;;;;;;;4991923;28;20030;-74
2021/09/19 12:57:28;;;;;;;12.20;7.70;;;;;;;;;;4993194;28;20370;-73
2021/09/19 12:59:56;;;;;;;16.08;8.65;;;;;;;;;;4975642;28;20045;-74
2021/09/19 13:02:22;;;;;;;17.83;8.65;;;;;;;;;;4992917;28;20390;-73
2021/09/19 13:04:48;;;;;;;14.30;8.02;;;;;;;;;;4991909;28;20038;-75
2021/09/19 13:07:15;;;;;;;14.73;9.02;;;;;;;;;;4993031;28;20057;-74
2021/09/19 13:09:42;;;;;;;14.32;9.05;;;;;;;;;;4992717;28;20471;-73
2021/09/19 13:12:09;;;;;;;14.52;9.43;;;;;;;;;;4975563;28;20038;-75
2021/09/19 13:14:36;;;;;;;19.73;8.05;;;;;;;;;;4993578;28;20023;-73
2021/09/19 13:17:01;;;;;;;15.25;8.18;;;;;;;;;;4992966;28;20379;-74
2021/09/19 13:19:27;;;;;;;18.23;8.25;;;;;;;;;;4975133;28;20053;-74
2021/09/19 13:21:53;;;;;;;30.83;11.38;;;;;;;;;;4975070;28;20041;-73
2021/09/19 13:24:20;;;;;;;17.23;9.23;;;;;;;;;;4992752;28;20050;-75
2021/09/19 13:26:47;;;;;;;16.75;9.25;;;;;;;;;;4992542;28;20038;-73
2021/09/19 13:29:14;;;;;;;14.27;8.57;;;;;;;;;;4992574;28;20227;-74
2021/09/19 13:31:40;;;;;;;15.05;8.65;;;;;;;;;;4992044;28;20051;-74
2021/09/19 13:34:05;;;;;;;16.48;8.27;;;;;;;;;;4992563;28;20490;-74
2021/09/19 13:36:32;;;;;;;17.00;8.75;;;;;;;;;;4992739;28;20529;-74
2021/09/19 13:38:58;;;;;;;12.63;8.27;;;;;;;;;;4990735;28;20036;-73
2021/09/19 13:41:24;;;;;;;12.50;7.70;;;;;;;;;;4991351;28;20026;-73
2021/09/19 13:43:52;;;;;;;16.45;9.10;;;;;;;;;;4974843;28;20080;-75
2021/09/19 13:46:18;;;;;;;18.02;9.55;;;;;;;;;;4973837;28;20026;-73
2021/09/19 13:48:47;;;;;;;16.50;8.48;;;;;;;;;;4991915;28;20026;-74
2021/09/19 13:51:15;;;;;;;21.30;9.85;;;;;;;;;;4992343;28;20423;-74
2021/09/19 13:53:40;;;;;;;16.98;8.90;;;;;;;;;;4991677;28;20018;-73
2021/09/19 13:56:07;;;;;;;14.38;8.20;;;;;;;;;;4973922;28;20053;-74
2021/09/19 13:58:32;;;;;;;13.48;8.07;;;;;;;;;;4974458;28;20084;-73
2021/09/19 14:00:58;;;;;;;15.82;8.60;;;;;;;;;;4991724;28;20034;-74
2021/09/19 14:03:24;;;;;;;15.60;8.07;;;;;;;;;;4992796;28;20348;-74
2021/09/19 14:05:52;;;;;;;15.73;8.55;;;;;;;;;;4991773;28;20026;-73
2021/09/19 14:08:18;;;;;;;16.33;8.40;;;;;;;;;;4991981;28;20030;-72
2021/09/19 14:10:44;;;;;;;16.27;7.50;;;;;;;;;;4974100;28;20356;-74
2021/09/19 14:13:09;;;;;;;16.67;8.25;;;;;;;;;;4992032;28;20033;-74
2021/09/19 14:15:35;;;;;;;13.75;8.10;;;;;;;;;;4992875;28;20077;-74
2021/09/19 14:18:00;;;;;;;16.42;8.48;;;;;;;;;;4974815;28;20026;-73
2021/09/19 14:20:27;;;;;;;23.98;12.88;;;;;;;;;;4992645;28;20022;-74
2021/09/19 14:22:56;;;;;;;16.95;8.65;;;;;;;;;;4990907;28;20026;-73
2021/09/19 14:25:25;;;;;;;20.20;7.97;;;;;;;;;;4991971;28;20037;-74
2021/09/19 14:27:50;;;;;;;18.67;8.63;;;;;;;;;;4991653;28;20153;-72
2021/09/19 14:30:17;;;;;;;17.48;8.75;;;;;;;;;;4974118;28;20129;-74
2021/09/19 14:32:44;;;;;;;19.33;9.85;;;;;;;;;;4991207;28;20037;-74
2021/09/19 14:35:11;;;;;;;19.73;10.35;;;;;;;;;;4974061;28;20049;-72
2021/09/19 14:37:37;;;;;;;19.38;10.23;;;;;;;;;;4973834;28;20509;-74
2021/09/19 14:40:04;;;;;;;20.45;10.90;;;;;;;;;;4991133;28;20036;-73